sensor_id;sensor_type;location;lat;lon;timestamp;temperature;humidity
30520;DHT22;17300;50.374;8.006;2024-01-10T00:01:55;2.70;29.00
30520;DHT22;17300;50.374;8.006;2024-01-10T00:04:22;2.80;29.10
30520;DHT22;17300;50.374;8.006;2024-01-10T00:06:49;2.70;29.10
30520;DHT22;17300;50.374;8.006;2024-01-10T00:09:15;2.70;29.10
30520;DHT22;17300;50.374;8.006;2024-01-10T00:11:43;2.70;29.20
30520;DHT22;17300;50.374;8.006;2024-01-10T00:14:10;2.70;29.20
30520;DHT22;17300;50.374;8.006;2024-01-10T00:16:37;2.70;29.20
30520;DHT22;17300;50.374;8.006;2024-01-10T00:19:03;2.70;29.30
30520;DHT22;17300;50.374;8.006;2024-01-10T00:21:30;2.60;29.20
30520;DHT22;17300;50.374;8.006;2024-01-10T00:23:57;2.60;29.30
30520;DHT22;17300;50.374;8.006;2024-01-10T00:26:24;2.60;29.30
30520;DHT22;17300;50.374;8.006;2024-01-10T00:28:52;2.60;29.30
30520;DHT22;17300;50.374;8.006;2024-01-10T00:31:18;2.60;29.40
30520;DHT22;17300;50.374;8.006;2024-01-10T00:33:45;2.60;29.40
30520;DHT22;17300;50.374;8.006;2024-01-10T00:36:12;2.60;29.40
30520;DHT22;17300;50.374;8.006;2024-01-10T00:38:39;2.50;29.40
30520;DHT22;17300;50.374;8.006;2024-01-10T00:41:06;2.50;29.50
30520;DHT22;17300;50.374;8.006;2024-01-10T00:43:32;2.60;29.60
30520;DHT22;17300;50.374;8.006;2024-01-10T00:46:00;2.60;29.60
30520;DHT22;17300;50.374;8.006;2024-01-10T00:48:28;2.50;29.50
30520;DHT22;17300;50.374;8.006;2024-01-10T00:50:55;2.50;29.50
30520;DHT22;17300;50.374;8.006;2024-01-10T00:53:21;2.50;29.50
30520;DHT22;17300;50.374;8.006;2024-01-10T00:55:48;2.50;29.50
30520;DHT22;17300;50.374;8.006;2024-01-10T00:58:15;2.50;29.50
30520;DHT22;17300;50.374;8.006;2024-01-10T01:00:41;2.50;29.60
30520;DHT22;17300;50.374;8.006;2024-01-10T01:03:09;2.50;29.60
30520;DHT22;17300;50.374;8.006;2024-01-10T01:05:36;2.50;29.70
30520;DHT22;17300;50.374;8.006;2024-01-10T01:08:03;2.50;29.70
30520;DHT22;17300;50.374;8.006;2024-01-10T01:10:30;2.50;29.70
30520;DHT22;17300;50.374;8.006;2024-01-10T01:12:56;2.50;29.70
30520;DHT22;17300;50.374;8.006;2024-01-10T01:15:23;2.40;29.70
30520;DHT22;17300;50.374;8.006;2024-01-10T01:17:50;2.50;29.70
30520;DHT22;17300;50.374;8.006;2024-01-10T01:20:18;2.40;29.70
30520;DHT22;17300;50.374;8.006;2024-01-10T01:22:44;2.40;29.70
30520;DHT22;17300;50.374;8.006;2024-01-10T01:25:11;2.40;29.70
30520;DHT22;17300;50.374;8.006;2024-01-10T01:27:38;2.40;29.70
30520;DHT22;17300;50.374;8.006;2024-01-10T01:30:05;2.40;29.80
30520;DHT22;17300;50.374;8.006;2024-01-10T01:32:32;2.30;29.70
30520;DHT22;17300;50.374;8.006;2024-01-10T01:34:59;2.40;29.80
30520;DHT22;17300;50.374;8.006;2024-01-10T01:37:26;2.30;29.70
30520;DHT22;17300;50.374;8.006;2024-01-10T01:39:52;2.30;29.80
30520;DHT22;17300;50.374;8.006;2024-01-10T01:42:19;2.30;29.80
30520;DHT22;17300;50.374;8.006;2024-01-10T01:44:46;2.30;29.90
30520;DHT22;17300;50.374;8.006;2024-01-10T01:47:12;2.30;29.90
30520;DHT22;17300;50.374;8.006;2024-01-10T01:49:40;2.30;29.90
30520;DHT22;17300;50.374;8.006;2024-01-10T01:52:08;2.30;29.90
30520;DHT22;17300;50.374;8.006;2024-01-10T01:54:36;2.30;29.90
30520;DHT22;17300;50.374;8.006;2024-01-10T01:57:03;2.30;30.00
30520;DHT22;17300;50.374;8.006;2024-01-10T01:59:30;2.20;29.90
30520;DHT22;17300;50.374;8.006;2024-01-10T02:01:58;2.30;29.90
30520;DHT22;17300;50.374;8.006;2024-01-10T02:04:28;2.20;29.90
30520;DHT22;17300;50.374;8.006;2024-01-10T02:07:14;2.20;29.90
30520;DHT22;17300;50.374;8.006;2024-01-10T02:09:42;2.20;30.00
30520;DHT22;17300;50.374;8.006;2024-01-10T02:12:09;2.20;30.00
30520;DHT22;17300;50.374;8.006;2024-01-10T02:14:36;2.20;30.00
30520;DHT22;17300;50.374;8.006;2024-01-10T02:17:02;2.10;30.00
30520;DHT22;17300;50.374;8.006;2024-01-10T02:19:29;2.10;30.00
30520;DHT22;17300;50.374;8.006;2024-01-10T02:21:58;2.10;30.00
30520;DHT22;17300;50.374;8.006;2024-01-10T02:24:24;2.10;30.00
30520;DHT22;17300;50.374;8.006;2024-01-10T02:26:52;2.10;30.00
30520;DHT22;17300;50.374;8.006;2024-01-10T02:29:19;2.10;30.10
30520;DHT22;17300;50.374;8.006;2024-01-10T02:31:45;2.10;30.10
30520;DHT22;17300;50.374;8.006;2024-01-10T02:34:12;2.10;30.10
30520;DHT22;17300;50.374;8.006;2024-01-10T02:36:39;2.20;30.20
30520;DHT22;17300;50.374;8.006;2024-01-10T02:39:05;2.20;30.20
30520;DHT22;17300;50.374;8.006;2024-01-10T02:41:32;2.20;30.20
30520;DHT22;17300;50.374;8.006;2024-01-10T02:44:00;2.10;30.10
30520;DHT22;17300;50.374;8.006;2024-01-10T02:46:27;2.10;30.10
30520;DHT22;17300;50.374;8.006;2024-01-10T02:48:54;2.20;30.20
30520;DHT22;17300;50.374;8.006;2024-01-10T02:51:21;2.20;30.20
30520;DHT22;17300;50.374;8.006;2024-01-10T02:53:48;2.10;30.10
30520;DHT22;17300;50.374;8.006;2024-01-10T02:56:15;2.10;30.20
30520;DHT22;17300;50.374;8.006;2024-01-10T02:58:41;2.10;30.20
30520;DHT22;17300;50.374;8.006;2024-01-10T03:01:09;2.10;30.20
30520;DHT22;17300;50.374;8.006;2024-01-10T03:03:36;2.10;30.30
30520;DHT22;17300;50.374;8.006;2024-01-10T03:06:03;2.00;30.20
30520;DHT22;17300;50.374;8.006;2024-01-10T03:08:30;2.10;30.30
30520;DHT22;17300;50.374;8.006;2024-01-10T03:10:56;2.00;30.30
30520;DHT22;17300;50.374;8.006;2024-01-10T03:13:23;2.10;30.40
30520;DHT22;17300;50.374;8.006;2024-01-10T03:15:49;2.00;30.30
30520;DHT22;17300;50.374;8.006;2024-01-10T03:18:17;2.00;30.30
30520;DHT22;17300;50.374;8.006;2024-01-10T03:20:44;2.00;30.40
30520;DHT22;17300;50.374;8.006;2024-01-10T03:23:11;2.00;30.40
30520;DHT22;17300;50.374;8.006;2024-01-10T03:25:37;2.00;30.40
30520;DHT22;17300;50.374;8.006;2024-01-10T03:28:05;2.00;30.50
30520;DHT22;17300;50.374;8.006;2024-01-10T03:30:31;2.00;30.50
30520;DHT22;17300;50.374;8.006;2024-01-10T03:32:58;2.00;30.50
30520;DHT22;17300;50.374;8.006;2024-01-10T03:35:26;1.90;30.40
30520;DHT22;17300;50.374;8.006;2024-01-10T03:37:52;2.00;30.60
30520;DHT22;17300;50.374;8.006;2024-01-10T03:40:19;2.00;30.60
30520;DHT22;17300;50.374;8.006;2024-01-10T03:42:46;2.00;30.60
30520;DHT22;17300;50.374;8.006;2024-01-10T03:45:12;1.90;30.60
30520;DHT22;17300;50.374;8.006;2024-01-10T03:47:42;1.90;30.60
30520;DHT22;17300;50.374;8.006;2024-01-10T03:50:09;1.90;30.60
30520;DHT22;17300;50.374;8.006;2024-01-10T03:52:37;1.90;30.70
30520;DHT22;17300;50.374;8.006;2024-01-10T03:55:04;1.90;30.70
30520;DHT22;17300;50.374;8.006;2024-01-10T03:57:30;1.90;30.70
30520;DHT22;17300;50.374;8.006;2024-01-10T03:59:57;1.90;30.70
30520;DHT22;17300;50.374;8.006;2024-01-10T04:02:24;1.90;30.70
30520;DHT22;17300;50.374;8.006;2024-01-10T04:04:51;1.90;30.70
30520;DHT22;17300;50.374;8.006;2024-01-10T04:07:17;1.80;30.60
30520;DHT22;17300;50.374;8.006;2024-01-10T04:09:45;1.80;30.60
30520;DHT22;17300;50.374;8.006;2024-01-10T04:12:12;1.80;30.70
30520;DHT22;17300;50.374;8.006;2024-01-10T04:14:39;1.80;30.70
30520;DHT22;17300;50.374;8.006;2024-01-10T04:17:05;1.80;30.80
30520;DHT22;17300;50.374;8.006;2024-01-10T04:19:32;1.80;30.80
30520;DHT22;17300;50.374;8.006;2024-01-10T04:21:59;1.70;30.80
30520;DHT22;17300;50.374;8.006;2024-01-10T04:24:26;1.70;31.50
30520;DHT22;17300;50.374;8.006;2024-01-10T04:26:54;1.70;30.90
30520;DHT22;17300;50.374;8.006;2024-01-10T04:29:21;1.70;31.00
30520;DHT22;17300;50.374;8.006;2024-01-10T04:31:47;1.70;31.10
30520;DHT22;17300;50.374;8.006;2024-01-10T04:34:14;1.70;31.10
30520;DHT22;17300;50.374;8.006;2024-01-10T04:36:41;1.70;31.10
30520;DHT22;17300;50.374;8.006;2024-01-10T04:39:07;1.80;31.20
30520;DHT22;17300;50.374;8.006;2024-01-10T04:41:34;1.80;31.20
30520;DHT22;17300;50.374;8.006;2024-01-10T04:44:02;1.80;31.20
30520;DHT22;17300;50.374;8.006;2024-01-10T04:46:28;1.80;31.20
30520;DHT22;17300;50.374;8.006;2024-01-10T04:48:55;1.80;31.20
30520;DHT22;17300;50.374;8.006;2024-01-10T04:51:22;1.80;31.20
30520;DHT22;17300;50.374;8.006;2024-01-10T04:53:48;1.80;31.20
30520;DHT22;17300;50.374;8.006;2024-01-10T04:56:15;1.80;31.20
30520;DHT22;17300;50.374;8.006;2024-01-10T04:58:42;1.80;31.30
30520;DHT22;17300;50.374;8.006;2024-01-10T05:01:10;1.80;31.30
30520;DHT22;17300;50.374;8.006;2024-01-10T05:03:36;1.80;31.40
30520;DHT22;17300;50.374;8.006;2024-01-10T05:06:03;1.80;31.50
30520;DHT22;17300;50.374;8.006;2024-01-10T05:08:30;1.80;31.50
30520;DHT22;17300;50.374;8.006;2024-01-10T05:10:57;1.80;31.50
30520;DHT22;17300;50.374;8.006;2024-01-10T05:13:23;1.80;31.70
30520;DHT22;17300;50.374;8.006;2024-01-10T05:15:50;1.80;31.70
30520;DHT22;17300;50.374;8.006;2024-01-10T05:18:18;1.80;32.30
30520;DHT22;17300;50.374;8.006;2024-01-10T05:20:45;1.80;31.80
30520;DHT22;17300;50.374;8.006;2024-01-10T05:23:11;1.80;31.80
30520;DHT22;17300;50.374;8.006;2024-01-10T05:25:38;1.70;31.80
30520;DHT22;17300;50.374;8.006;2024-01-10T05:28:05;1.80;31.90
30520;DHT22;17300;50.374;8.006;2024-01-10T05:30:32;1.70;31.80
30520;DHT22;17300;50.374;8.006;2024-01-10T05:32:59;1.80;31.90
30520;DHT22;17300;50.374;8.006;2024-01-10T05:35:27;1.80;31.90
30520;DHT22;17300;50.374;8.006;2024-01-10T05:37:54;1.80;31.90
30520;DHT22;17300;50.374;8.006;2024-01-10T05:40:20;1.80;31.80
30520;DHT22;17300;50.374;8.006;2024-01-10T05:42:47;1.80;31.90
30520;DHT22;17300;50.374;8.006;2024-01-10T05:45:14;1.80;31.90
30520;DHT22;17300;50.374;8.006;2024-01-10T05:47:43;1.80;31.90
30520;DHT22;17300;50.374;8.006;2024-01-10T05:50:10;1.80;32.00
30520;DHT22;17300;50.374;8.006;2024-01-10T05:52:38;1.80;31.90
30520;DHT22;17300;50.374;8.006;2024-01-10T05:55:06;1.80;32.00
30520;DHT22;17300;50.374;8.006;2024-01-10T05:57:34;1.80;32.00
30520;DHT22;17300;50.374;8.006;2024-01-10T06:00:00;1.90;32.00
30520;DHT22;17300;50.374;8.006;2024-01-10T06:02:28;1.90;32.00
30520;DHT22;17300;50.374;8.006;2024-01-10T06:04:55;1.90;32.00
30520;DHT22;17300;50.374;8.006;2024-01-10T06:07:21;1.90;32.00
30520;DHT22;17300;50.374;8.006;2024-01-10T06:09:50;1.90;32.00
30520;DHT22;17300;50.374;8.006;2024-01-10T06:12:16;1.90;31.90
30520;DHT22;17300;50.374;8.006;2024-01-10T06:14:43;1.90;31.90
30520;DHT22;17300;50.374;8.006;2024-01-10T06:17:10;1.80;31.80
30520;DHT22;17300;50.374;8.006;2024-01-10T06:19:36;1.90;31.90
30520;DHT22;17300;50.374;8.006;2024-01-10T06:22:03;1.80;31.80
30520;DHT22;17300;50.374;8.006;2024-01-10T06:24:30;1.80;31.80
30520;DHT22;17300;50.374;8.006;2024-01-10T06:26:58;1.80;31.80
30520;DHT22;17300;50.374;8.006;2024-01-10T06:29:24;1.80;31.90
30520;DHT22;17300;50.374;8.006;2024-01-10T06:31:51;1.80;31.90
30520;DHT22;17300;50.374;8.006;2024-01-10T06:34:18;1.80;31.90
30520;DHT22;17300;50.374;8.006;2024-01-10T06:36:45;1.80;31.90
30520;DHT22;17300;50.374;8.006;2024-01-10T06:39:12;1.80;32.00
30520;DHT22;17300;50.374;8.006;2024-01-10T06:41:39;1.80;32.00
30520;DHT22;17300;50.374;8.006;2024-01-10T06:44:07;1.70;31.90
30520;DHT22;17300;50.374;8.006;2024-01-10T06:46:33;1.70;32.00
30520;DHT22;17300;50.374;8.006;2024-01-10T06:49:01;1.70;31.90
30520;DHT22;17300;50.374;8.006;2024-01-10T06:51:28;1.70;32.00
30520;DHT22;17300;50.374;8.006;2024-01-10T06:53:54;1.70;32.00
30520;DHT22;17300;50.374;8.006;2024-01-10T06:56:28;1.70;32.00
30520;DHT22;17300;50.374;8.006;2024-01-10T06:58:54;1.70;32.60
30520;DHT22;17300;50.374;8.006;2024-01-10T07:01:22;1.70;32.00
30520;DHT22;17300;50.374;8.006;2024-01-10T07:03:49;1.70;32.00
30520;DHT22;17300;50.374;8.006;2024-01-10T07:06:16;1.70;32.70
30520;DHT22;17300;50.374;8.006;2024-01-10T07:08:43;1.70;32.10
30520;DHT22;17300;50.374;8.006;2024-01-10T07:11:10;1.70;32.10
30520;DHT22;17300;50.374;8.006;2024-01-10T07:13:37;1.70;32.20
30520;DHT22;17300;50.374;8.006;2024-01-10T07:16:05;1.70;32.20
30520;DHT22;17300;50.374;8.006;2024-01-10T07:18:33;1.70;32.20
30520;DHT22;17300;50.374;8.006;2024-01-10T07:21:00;1.70;32.30
30520;DHT22;17300;50.374;8.006;2024-01-10T07:23:26;1.70;32.30
30520;DHT22;17300;50.374;8.006;2024-01-10T07:25:53;1.80;32.40
30520;DHT22;17300;50.374;8.006;2024-01-10T07:28:20;1.70;32.30
30520;DHT22;17300;50.374;8.006;2024-01-10T07:30:48;1.70;32.40
30520;DHT22;17300;50.374;8.006;2024-01-10T07:33:14;1.70;32.30
30520;DHT22;17300;50.374;8.006;2024-01-10T07:35:43;1.80;32.50
30520;DHT22;17300;50.374;8.006;2024-01-10T07:38:09;1.80;32.50
30520;DHT22;17300;50.374;8.006;2024-01-10T07:40:36;1.80;32.50
30520;DHT22;17300;50.374;8.006;2024-01-10T07:43:03;1.80;32.50
30520;DHT22;17300;50.374;8.006;2024-01-10T07:45:30;1.80;32.50
30520;DHT22;17300;50.374;8.006;2024-01-10T07:47:57;1.80;32.50
30520;DHT22;17300;50.374;8.006;2024-01-10T07:50:23;1.90;32.60
30520;DHT22;17300;50.374;8.006;2024-01-10T07:52:54;1.90;32.60
30520;DHT22;17300;50.374;8.006;2024-01-10T07:55:20;1.90;32.60
30520;DHT22;17300;50.374;8.006;2024-01-10T07:57:47;1.90;32.60
30520;DHT22;17300;50.374;8.006;2024-01-10T08:00:14;1.90;32.60
30520;DHT22;17300;50.374;8.006;2024-01-10T08:02:41;1.90;32.70
30520;DHT22;17300;50.374;8.006;2024-01-10T08:05:08;1.90;32.70
30520;DHT22;17300;50.374;8.006;2024-01-10T08:07:35;2.00;32.80
30520;DHT22;17300;50.374;8.006;2024-01-10T08:10:04;2.00;32.80
30520;DHT22;17300;50.374;8.006;2024-01-10T08:12:30;2.00;32.80
30520;DHT22;17300;50.374;8.006;2024-01-10T08:14:57;2.10;32.90
30520;DHT22;17300;50.374;8.006;2024-01-10T08:17:24;2.10;32.90
30520;DHT22;17300;50.374;8.006;2024-01-10T08:19:51;2.10;32.90
30520;DHT22;17300;50.374;8.006;2024-01-10T08:22:18;2.20;33.00
30520;DHT22;17300;50.374;8.006;2024-01-10T08:24:45;2.20;33.10
30520;DHT22;17300;50.374;8.006;2024-01-10T08:27:13;2.30;33.20
30520;DHT22;17300;50.374;8.006;2024-01-10T08:29:40;2.30;33.20
30520;DHT22;17300;50.374;8.006;2024-01-10T08:32:06;2.30;33.20
30520;DHT22;17300;50.374;8.006;2024-01-10T08:34:33;2.40;33.30
30520;DHT22;17300;50.374;8.006;2024-01-10T08:37:00;2.40;33.20
30520;DHT22;17300;50.374;8.006;2024-01-10T08:39:26;2.50;33.20
30520;DHT22;17300;50.374;8.006;2024-01-10T08:41:56;2.50;33.20
30520;DHT22;17300;50.374;8.006;2024-01-10T08:44:24;2.50;33.20
30520;DHT22;17300;50.374;8.006;2024-01-10T08:46:51;2.60;33.30
30520;DHT22;17300;50.374;8.006;2024-01-10T08:49:18;2.70;33.30
30520;DHT22;17300;50.374;8.006;2024-01-10T08:51:45;2.70;33.30
30520;DHT22;17300;50.374;8.006;2024-01-10T08:54:12;2.80;33.50
30520;DHT22;17300;50.374;8.006;2024-01-10T08:56:42;2.80;33.50
30520;DHT22;17300;50.374;8.006;2024-01-10T08:59:10;2.80;33.50
30520;DHT22;17300;50.374;8.006;2024-01-10T09:01:38;2.90;33.60
30520;DHT22;17300;50.374;8.006;2024-01-10T09:04:05;3.00;33.70
30520;DHT22;17300;50.374;8.006;2024-01-10T09:06:34;3.00;33.70
30520;DHT22;17300;50.374;8.006;2024-01-10T09:09:03;3.10;33.70
30520;DHT22;17300;50.374;8.006;2024-01-10T09:11:30;3.10;33.70
30520;DHT22;17300;50.374;8.006;2024-01-10T09:13:56;3.20;33.70
30520;DHT22;17300;50.374;8.006;2024-01-10T09:16:24;3.30;33.80
30520;DHT22;17300;50.374;8.006;2024-01-10T09:18:56;3.40;33.90
30520;DHT22;17300;50.374;8.006;2024-01-10T09:21:24;3.50;34.00
30520;DHT22;17300;50.374;8.006;2024-01-10T09:24:00;3.60;34.20
30520;DHT22;17300;50.374;8.006;2024-01-10T09:27:04;3.70;34.30
30520;DHT22;17300;50.374;8.006;2024-01-10T09:30:07;3.90;34.40
30520;DHT22;17300;50.374;8.006;2024-01-10T09:36:58;4.20;34.50
30520;DHT22;17300;50.374;8.006;2024-01-10T09:57:05;5.00;34.00
30520;DHT22;17300;50.374;8.006;2024-01-10T09:59:41;5.00;33.80
30520;DHT22;17300;50.374;8.006;2024-01-10T10:02:50;5.10;33.90
30520;DHT22;17300;50.374;8.006;2024-01-10T10:06:04;5.10;33.70
30520;DHT22;17300;50.374;8.006;2024-01-10T10:08:34;5.20;33.70
30520;DHT22;17300;50.374;8.006;2024-01-10T10:11:01;5.20;33.70
30520;DHT22;17300;50.374;8.006;2024-01-10T10:13:29;5.20;33.60
30520;DHT22;17300;50.374;8.006;2024-01-10T10:15:59;5.10;33.40
30520;DHT22;17300;50.374;8.006;2024-01-10T10:18:27;5.20;33.30
30520;DHT22;17300;50.374;8.006;2024-01-10T10:21:07;5.10;33.20
30520;DHT22;17300;50.374;8.006;2024-01-10T10:23:34;5.10;33.10
30520;DHT22;17300;50.374;8.006;2024-01-10T10:26:10;5.10;33.10
30520;DHT22;17300;50.374;8.006;2024-01-10T10:28:40;5.10;33.00
30520;DHT22;17300;50.374;8.006;2024-01-10T10:31:07;5.10;33.00
30520;DHT22;17300;50.374;8.006;2024-01-10T10:33:34;5.00;32.90
30520;DHT22;17300;50.374;8.006;2024-01-10T10:36:01;5.00;32.90
30520;DHT22;17300;50.374;8.006;2024-01-10T10:38:28;4.90;32.90
30520;DHT22;17300;50.374;8.006;2024-01-10T10:40:55;4.90;32.90
30520;DHT22;17300;50.374;8.006;2024-01-10T10:43:23;4.90;33.00
30520;DHT22;17300;50.374;8.006;2024-01-10T10:45:51;4.80;33.00
30520;DHT22;17300;50.374;8.006;2024-01-10T10:48:19;4.80;33.00
30520;DHT22;17300;50.374;8.006;2024-01-10T10:50:50;4.80;33.00
30520;DHT22;17300;50.374;8.006;2024-01-10T10:53:21;4.80;32.90
30520;DHT22;17300;50.374;8.006;2024-01-10T10:55:50;4.70;32.80
30520;DHT22;17300;50.374;8.006;2024-01-10T10:58:17;4.70;32.80
30520;DHT22;17300;50.374;8.006;2024-01-10T11:00:44;4.70;32.80
30520;DHT22;17300;50.374;8.006;2024-01-10T11:03:14;4.70;32.90
30520;DHT22;17300;50.374;8.006;2024-01-10T11:05:43;4.60;32.90
30520;DHT22;17300;50.374;8.006;2024-01-10T11:08:13;4.60;32.90
30520;DHT22;17300;50.374;8.006;2024-01-10T11:10:42;4.60;33.00
30520;DHT22;17300;50.374;8.006;2024-01-10T11:13:25;4.60;33.00
30520;DHT22;17300;50.374;8.006;2024-01-10T11:16:04;4.60;33.10
30520;DHT22;17300;50.374;8.006;2024-01-10T11:18:51;4.50;33.10
30520;DHT22;17300;50.374;8.006;2024-01-10T11:21:24;4.50;33.10
30520;DHT22;17300;50.374;8.006;2024-01-10T11:23:57;4.50;33.10
30520;DHT22;17300;50.374;8.006;2024-01-10T11:26:26;4.50;33.20
30520;DHT22;17300;50.374;8.006;2024-01-10T11:28:53;4.50;33.20
30520;DHT22;17300;50.374;8.006;2024-01-10T11:31:27;4.60;33.40
30520;DHT22;17300;50.374;8.006;2024-01-10T11:33:57;4.60;33.40
30520;DHT22;17300;50.374;8.006;2024-01-10T11:36:25;4.60;33.50
30520;DHT22;17300;50.374;8.006;2024-01-10T11:38:58;4.70;33.60
30520;DHT22;17300;50.374;8.006;2024-01-10T11:41:27;4.70;33.50
30520;DHT22;17300;50.374;8.006;2024-01-10T11:44:25;4.70;33.50
30520;DHT22;17300;50.374;8.006;2024-01-10T11:46:53;4.80;33.50
30520;DHT22;17300;50.374;8.006;2024-01-10T11:49:22;4.80;33.50
30520;DHT22;17300;50.374;8.006;2024-01-10T11:51:51;4.80;33.60
30520;DHT22;17300;50.374;8.006;2024-01-10T11:54:38;4.80;33.50
30520;DHT22;17300;50.374;8.006;2024-01-10T11:57:08;4.90;33.50
30520;DHT22;17300;50.374;8.006;2024-01-10T11:59:37;4.90;33.60
30520;DHT22;17300;50.374;8.006;2024-01-10T12:02:04;4.90;33.50
30520;DHT22;17300;50.374;8.006;2024-01-10T12:04:33;4.90;33.50
30520;DHT22;17300;50.374;8.006;2024-01-10T12:07:02;4.90;33.50
30520;DHT22;17300;50.374;8.006;2024-01-10T12:09:29;5.00;33.50
30520;DHT22;17300;50.374;8.006;2024-01-10T12:11:55;5.00;33.50
30520;DHT22;17300;50.374;8.006;2024-01-10T12:14:22;5.00;33.40
30520;DHT22;17300;50.374;8.006;2024-01-10T12:16:50;5.00;33.40
30520;DHT22;17300;50.374;8.006;2024-01-10T12:19:17;5.00;33.40
30520;DHT22;17300;50.374;8.006;2024-01-10T12:21:45;5.00;33.50
30520;DHT22;17300;50.374;8.006;2024-01-10T12:24:13;5.00;33.50
30520;DHT22;17300;50.374;8.006;2024-01-10T12:26:43;5.10;33.80
30520;DHT22;17300;50.374;8.006;2024-01-10T12:29:10;5.10;34.00
30520;DHT22;17300;50.374;8.006;2024-01-10T12:31:38;5.30;34.90
30520;DHT22;17300;50.374;8.006;2024-01-10T12:34:07;5.30;34.40
30520;DHT22;17300;50.374;8.006;2024-01-10T12:36:34;5.50;34.50
30520;DHT22;17300;50.374;8.006;2024-01-10T12:39:03;5.60;34.60
30520;DHT22;17300;50.374;8.006;2024-01-10T12:41:32;5.70;34.60
30520;DHT22;17300;50.374;8.006;2024-01-10T12:44:00;5.80;34.50
30520;DHT22;17300;50.374;8.006;2024-01-10T12:46:29;5.90;34.40
30520;DHT22;17300;50.374;8.006;2024-01-10T12:48:59;5.90;34.30
30520;DHT22;17300;50.374;8.006;2024-01-10T12:51:27;6.00;34.30
30520;DHT22;17300;50.374;8.006;2024-01-10T12:53:54;6.10;34.20
30520;DHT22;17300;50.374;8.006;2024-01-10T12:56:22;6.10;34.10
30520;DHT22;17300;50.374;8.006;2024-01-10T12:58:49;6.20;34.10
30520;DHT22;17300;50.374;8.006;2024-01-10T13:01:16;6.20;34.00
30520;DHT22;17300;50.374;8.006;2024-01-10T13:03:43;6.30;34.10
30520;DHT22;17300;50.374;8.006;2024-01-10T13:06:09;6.30;34.00
30520;DHT22;17300;50.374;8.006;2024-01-10T13:08:36;6.30;34.00
30520;DHT22;17300;50.374;8.006;2024-01-10T13:11:03;6.40;34.10
30520;DHT22;17300;50.374;8.006;2024-01-10T13:13:35;6.50;34.20
30520;DHT22;17300;50.374;8.006;2024-01-10T13:16:02;6.50;34.10
30520;DHT22;17300;50.374;8.006;2024-01-10T13:18:29;6.60;34.20
30520;DHT22;17300;50.374;8.006;2024-01-10T13:20:56;6.70;34.30
30520;DHT22;17300;50.374;8.006;2024-01-10T13:23:23;6.70;34.30
30520;DHT22;17300;50.374;8.006;2024-01-10T13:25:50;6.80;34.20
30520;DHT22;17300;50.374;8.006;2024-01-10T13:28:16;6.90;34.30
30520;DHT22;17300;50.374;8.006;2024-01-10T13:30:45;7.00;34.20
30520;DHT22;17300;50.374;8.006;2024-01-10T13:33:11;7.10;34.30
30520;DHT22;17300;50.374;8.006;2024-01-10T13:35:39;7.10;34.30
30520;DHT22;17300;50.374;8.006;2024-01-10T13:38:06;7.20;34.40
30520;DHT22;17300;50.374;8.006;2024-01-10T13:40:33;7.30;34.40
30520;DHT22;17300;50.374;8.006;2024-01-10T13:43:00;7.40;34.50
30520;DHT22;17300;50.374;8.006;2024-01-10T13:45:28;7.50;34.60
30520;DHT22;17300;50.374;8.006;2024-01-10T13:47:56;7.60;34.70
30520;DHT22;17300;50.374;8.006;2024-01-10T13:50:23;7.70;34.60
30520;DHT22;17300;50.374;8.006;2024-01-10T13:52:50;7.90;34.70
30520;DHT22;17300;50.374;8.006;2024-01-10T13:55:19;8.00;34.60
30520;DHT22;17300;50.374;8.006;2024-01-10T13:57:46;8.10;34.40
30520;DHT22;17300;50.374;8.006;2024-01-10T14:00:13;8.20;34.40
30520;DHT22;17300;50.374;8.006;2024-01-10T14:02:40;8.20;34.20
30520;DHT22;17300;50.374;8.006;2024-01-10T14:05:08;8.30;34.10
30520;DHT22;17300;50.374;8.006;2024-01-10T14:07:35;8.30;33.90
30520;DHT22;17300;50.374;8.006;2024-01-10T14:10:03;8.30;33.70
30520;DHT22;17300;50.374;8.006;2024-01-10T14:12:30;8.40;33.70
30520;DHT22;17300;50.374;8.006;2024-01-10T14:14:57;8.30;33.50
30520;DHT22;17300;50.374;8.006;2024-01-10T14:17:25;8.30;33.30
30520;DHT22;17300;50.374;8.006;2024-01-10T14:19:52;8.30;33.30
30520;DHT22;17300;50.374;8.006;2024-01-10T14:22:20;8.30;33.20
30520;DHT22;17300;50.374;8.006;2024-01-10T14:24:49;8.30;33.20
30520;DHT22;17300;50.374;8.006;2024-01-10T14:27:16;8.30;33.10
30520;DHT22;17300;50.374;8.006;2024-01-10T14:29:42;8.20;33.00
30520;DHT22;17300;50.374;8.006;2024-01-10T14:32:09;8.20;33.00
30520;DHT22;17300;50.374;8.006;2024-01-10T14:34:38;8.20;32.90
30520;DHT22;17300;50.374;8.006;2024-01-10T14:37:05;8.20;32.90
30520;DHT22;17300;50.374;8.006;2024-01-10T14:39:34;8.10;32.70
30520;DHT22;17300;50.374;8.006;2024-01-10T14:42:05;8.10;32.60
30520;DHT22;17300;50.374;8.006;2024-01-10T14:44:32;8.10;32.60
30520;DHT22;17300;50.374;8.006;2024-01-10T14:46:59;8.00;32.40
30520;DHT22;17300;50.374;8.006;2024-01-10T14:49:26;7.90;32.40
30520;DHT22;17300;50.374;8.006;2024-01-10T14:51:53;7.90;32.40
30520;DHT22;17300;50.374;8.006;2024-01-10T14:54:19;7.80;32.30
30520;DHT22;17300;50.374;8.006;2024-01-10T14:56:48;7.70;32.20
30520;DHT22;17300;50.374;8.006;2024-01-10T14:59:17;7.70;32.10
30520;DHT22;17300;50.374;8.006;2024-01-10T15:01:44;7.60;32.00
30520;DHT22;17300;50.374;8.006;2024-01-10T15:04:11;7.50;31.90
30520;DHT22;17300;50.374;8.006;2024-01-10T15:06:42;7.40;31.80
30520;DHT22;17300;50.374;8.006;2024-01-10T15:09:09;7.30;31.70
30520;DHT22;17300;50.374;8.006;2024-01-10T15:11:38;7.20;31.70
30520;DHT22;17300;50.374;8.006;2024-01-10T15:14:06;7.10;31.60
30520;DHT22;17300;50.374;8.006;2024-01-10T15:16:33;7.00;31.60
30520;DHT22;17300;50.374;8.006;2024-01-10T15:18:59;6.90;31.50
30520;DHT22;17300;50.374;8.006;2024-01-10T15:21:27;6.70;31.40
30520;DHT22;17300;50.374;8.006;2024-01-10T15:23:54;6.70;31.50
30520;DHT22;17300;50.374;8.006;2024-01-10T15:26:20;6.50;31.50
30520;DHT22;17300;50.374;8.006;2024-01-10T15:28:48;6.40;31.50
30520;DHT22;17300;50.374;8.006;2024-01-10T15:31:17;6.30;31.50
30520;DHT22;17300;50.374;8.006;2024-01-10T15:33:44;6.20;31.50
30520;DHT22;17300;50.374;8.006;2024-01-10T15:36:11;6.10;31.60
30520;DHT22;17300;50.374;8.006;2024-01-10T15:38:39;6.10;31.70
30520;DHT22;17300;50.374;8.006;2024-01-10T15:41:06;6.00;31.80
30520;DHT22;17300;50.374;8.006;2024-01-10T15:43:34;5.90;31.80
30520;DHT22;17300;50.374;8.006;2024-01-10T15:46:00;5.80;31.70
30520;DHT22;17300;50.374;8.006;2024-01-10T15:48:28;5.80;31.70
30520;DHT22;17300;50.374;8.006;2024-01-10T15:50:55;5.70;31.80
30520;DHT22;17300;50.374;8.006;2024-01-10T15:53:22;5.60;31.80
30520;DHT22;17300;50.374;8.006;2024-01-10T15:55:49;5.60;31.90
30520;DHT22;17300;50.374;8.006;2024-01-10T15:58:16;5.50;31.90
30520;DHT22;17300;50.374;8.006;2024-01-10T16:00:43;5.40;31.90
30520;DHT22;17300;50.374;8.006;2024-01-10T16:03:10;5.40;32.00
30520;DHT22;17300;50.374;8.006;2024-01-10T16:05:38;5.30;32.00
30520;DHT22;17300;50.374;8.006;2024-01-10T16:08:05;5.30;32.10
30520;DHT22;17300;50.374;8.006;2024-01-10T16:10:32;5.20;32.10
30520;DHT22;17300;50.374;8.006;2024-01-10T16:12:59;5.20;32.20